sensor_id;sensor_type;location;lat;lon;timestamp;pressure;altitude;pressure_sealevel;temperature;humidity
61324;BME280;47203;48.428;11.974;2023-06-26T00:01:55;96870.59;;;24.32;36.86
61324;BME280;47203;48.428;11.974;2023-06-26T00:04:01;96871.75;;;24.31;37.02
61324;BME280;47203;48.428;11.974;2023-06-26T00:06:06;96866.38;;;24.31;36.75
61324;BME280;47203;48.428;11.974;2023-06-26T00:08:11;96868.28;;;24.31;36.69
61324;BME280;47203;48.428;11.974;2023-06-26T00:10:16;96867.06;;;24.28;36.82
61324;BME280;47203;48.428;11.974;2023-06-26T00:12:21;96867.75;;;24.25;37.07
61324;BME280;47203;48.428;11.974;2023-06-26T00:14:26;96866.56;;;24.22;37.05
61324;BME280;47203;48.428;11.974;2023-06-26T00:16:34;96866.13;;;24.20;37.18
61324;BME280;47203;48.428;11.974;2023-06-26T00:18:39;96866.47;;;24.19;37.34
61324;BME280;47203;48.428;11.974;2023-06-26T00:20:44;96866.06;;;24.17;37.10
61324;BME280;47203;48.428;11.974;2023-06-26T00:22:49;96864.06;;;24.14;37.45
61324;BME280;47203;48.428;11.974;2023-06-26T00:24:55;96866.66;;;24.10;37.25
61324;BME280;47203;48.428;11.974;2023-06-26T00:27:00;96870.81;;;24.08;37.36
61324;BME280;47203;48.428;11.974;2023-06-26T00:29:05;96865.38;;;24.04;37.44
61324;BME280;47203;48.428;11.974;2023-06-26T00:31:10;96858.78;;;24.01;37.25
61324;BME280;47203;48.428;11.974;2023-06-26T00:33:17;96865.97;;;23.97;37.59
61324;BME280;47203;48.428;11.974;2023-06-26T00:35:22;96862.09;;;23.95;37.65
61324;BME280;47203;48.428;11.974;2023-06-26T00:37:27;96866.66;;;23.94;37.45
61324;BME280;47203;48.428;11.974;2023-06-26T00:39:32;96862.75;;;23.92;37.84
61324;BME280;47203;48.428;11.974;2023-06-26T00:41:37;96873.88;;;23.90;37.56
61324;BME280;47203;48.428;11.974;2023-06-26T00:43:43;96871.88;;;23.87;37.56
61324;BME280;47203;48.428;11.974;2023-06-26T00:45:48;96867.16;;;23.84;37.64
61324;BME280;47203;48.428;11.974;2023-06-26T00:47:54;96864.06;;;23.82;37.70
61324;BME280;47203;48.428;11.974;2023-06-26T00:50:02;96862.06;;;23.79;37.78
61324;BME280;47203;48.428;11.974;2023-06-26T00:52:07;96866.22;;;23.76;37.95
61324;BME280;47203;48.428;11.974;2023-06-26T00:54:14;96872.28;;;23.73;37.71
61324;BME280;47203;48.428;11.974;2023-06-26T00:56:23;96873.75;;;23.70;37.79
61324;BME280;47203;48.428;11.974;2023-06-26T00:58:28;96864.81;;;23.66;37.93
61324;BME280;47203;48.428;11.974;2023-06-26T01:00:33;96873.16;;;23.61;37.84
61324;BME280;47203;48.428;11.974;2023-06-26T01:02:39;96873.81;;;23.58;38.18
61324;BME280;47203;48.428;11.974;2023-06-26T01:04:44;96871.06;;;23.55;38.21
61324;BME280;47203;48.428;11.974;2023-06-26T01:06:52;96870.97;;;23.51;38.62
61324;BME280;47203;48.428;11.974;2023-06-26T01:08:59;96867.06;;;23.48;37.93
61324;BME280;47203;48.428;11.974;2023-06-26T01:11:05;96868.88;;;23.44;38.04
61324;BME280;47203;48.428;11.974;2023-06-26T01:13:11;96868.78;;;23.41;38.24
61324;BME280;47203;48.428;11.974;2023-06-26T01:15:16;96867.56;;;23.38;38.32
61324;BME280;47203;48.428;11.974;2023-06-26T01:17:22;96866.78;;;23.38;38.38
61324;BME280;47203;48.428;11.974;2023-06-26T01:19:29;96864.78;;;23.34;38.58
61324;BME280;47203;48.428;11.974;2023-06-26T01:21:35;96864.78;;;23.34;38.65
61324;BME280;47203;48.428;11.974;2023-06-26T01:24:04;96862.44;;;23.33;38.90
61324;BME280;47203;48.428;11.974;2023-06-26T01:26:17;96857.00;;;23.29;38.86
61324;BME280;47203;48.428;11.974;2023-06-26T01:28:24;96865.41;;;23.28;38.51
61324;BME280;47203;48.428;11.974;2023-06-26T01:30:32;96866.50;;;23.27;38.74
61324;BME280;47203;48.428;11.974;2023-06-26T01:32:39;96864.16;;;23.25;38.73
61324;BME280;47203;48.428;11.974;2023-06-26T01:34:45;96861.47;;;23.25;38.45
61324;BME280;47203;48.428;11.974;2023-06-26T01:36:50;96858.44;;;23.27;38.97
61324;BME280;47203;48.428;11.974;2023-06-26T01:38:55;96864.94;;;23.26;38.60
61324;BME280;47203;48.428;11.974;2023-06-26T01:41:00;96858.03;;;23.25;38.80
61324;BME280;47203;48.428;11.974;2023-06-26T01:43:15;96858.25;;;23.20;39.29
61324;BME280;47203;48.428;11.974;2023-06-26T01:45:27;96860.88;;;23.16;39.41
61324;BME280;47203;48.428;11.974;2023-06-26T01:47:34;96855.84;;;23.14;39.07
61324;BME280;47203;48.428;11.974;2023-06-26T01:49:47;96855.72;;;23.11;39.35
61324;BME280;47203;48.428;11.974;2023-06-26T01:51:57;96854.81;;;23.07;39.01
61324;BME280;47203;48.428;11.974;2023-06-26T01:54:04;96851.72;;;23.05;38.88
61324;BME280;47203;48.428;11.974;2023-06-26T01:56:13;96860.44;;;23.01;38.56
61324;BME280;47203;48.428;11.974;2023-06-26T01:58:25;96854.53;;;22.96;39.15
61324;BME280;47203;48.428;11.974;2023-06-26T02:00:31;96862.47;;;22.92;38.89
61324;BME280;47203;48.428;11.974;2023-06-26T02:02:36;96861.28;;;22.90;38.66
61324;BME280;47203;48.428;11.974;2023-06-26T02:04:42;96857.03;;;22.89;39.12
61324;BME280;47203;48.428;11.974;2023-06-26T02:06:49;96864.63;;;22.87;38.78
61324;BME280;47203;48.428;11.974;2023-06-26T02:08:55;96862.63;;;22.83;38.99
61324;BME280;47203;48.428;11.974;2023-06-26T02:11:01;96869.91;;;22.83;38.94
61324;BME280;47203;48.428;11.974;2023-06-26T02:13:06;96874.50;;;22.82;39.23
61324;BME280;47203;48.428;11.974;2023-06-26T02:15:14;96869.47;;;22.81;39.31
61324;BME280;47203;48.428;11.974;2023-06-26T02:17:19;96870.13;;;22.78;38.91
61324;BME280;47203;48.428;11.974;2023-06-26T02:19:24;96871.94;;;22.74;39.10
61324;BME280;47203;48.428;11.974;2023-06-26T02:21:29;96867.56;;;22.69;39.34
61324;BME280;47203;48.428;11.974;2023-06-26T02:23:34;96872.50;;;22.67;39.27
61324;BME280;47203;48.428;11.974;2023-06-26T02:25:40;96869.41;;;22.65;39.60
61324;BME280;47203;48.428;11.974;2023-06-26T02:27:44;96866.25;;;22.63;39.13
61324;BME280;47203;48.428;11.974;2023-06-26T02:29:50;96861.69;;;22.63;39.71
61324;BME280;47203;48.428;11.974;2023-06-26T02:31:57;96865.16;;;22.64;39.80
61324;BME280;47203;48.428;11.974;2023-06-26T02:34:03;96868.59;;;22.64;39.73
61324;BME280;47203;48.428;11.974;2023-06-26T02:36:08;96864.81;;;22.65;39.35
61324;BME280;47203;48.428;11.974;2023-06-26T02:38:14;96869.75;;;22.63;39.60
61324;BME280;47203;48.428;11.974;2023-06-26T02:40:21;96871.19;;;22.61;39.31
61324;BME280;47203;48.428;11.974;2023-06-26T02:42:27;96880.69;;;22.58;39.48
61324;BME280;47203;48.428;11.974;2023-06-26T02:44:32;96881.38;;;22.55;39.45
61324;BME280;47203;48.428;11.974;2023-06-26T02:46:37;96870.22;;;22.53;39.57
61324;BME280;47203;48.428;11.974;2023-06-26T02:48:45;96869.31;;;22.49;40.07
61324;BME280;47203;48.428;11.974;2023-06-26T02:50:51;96876.56;;;22.48;39.77
61324;BME280;47203;48.428;11.974;2023-06-26T02:53:01;96871.53;;;22.47;39.42
61324;BME280;47203;48.428;11.974;2023-06-26T02:55:07;96873.44;;;22.46;39.71
61324;BME280;47203;48.428;11.974;2023-06-26T02:57:12;96874.13;;;22.43;39.79
61324;BME280;47203;48.428;11.974;2023-06-26T02:59:19;96880.59;;;22.42;39.82
61324;BME280;47203;48.428;11.974;2023-06-26T03:01:25;96875.91;;;22.39;39.89
61324;BME280;47203;48.428;11.974;2023-06-26T03:03:30;96875.03;;;22.35;39.78
61324;BME280;47203;48.428;11.974;2023-06-26T03:05:49;96869.06;;;22.29;40.19
61324;BME280;47203;48.428;11.974;2023-06-26T03:07:55;96867.53;;;22.28;39.95
61324;BME280;47203;48.428;11.974;2023-06-26T03:10:00;96860.59;;;22.27;39.92
61324;BME280;47203;48.428;11.974;2023-06-26T03:12:06;96870.88;;;22.25;39.72
61324;BME280;47203;48.428;11.974;2023-06-26T03:14:11;96876.56;;;22.24;40.22
61324;BME280;47203;48.428;11.974;2023-06-26T03:16:16;96867.31;;;22.21;40.03
61324;BME280;47203;48.428;11.974;2023-06-26T03:18:21;96858.81;;;22.19;39.81
61324;BME280;47203;48.428;11.974;2023-06-26T03:20:26;96856.47;;;22.18;40.10
61324;BME280;47203;48.428;11.974;2023-06-26T03:22:35;96864.06;;;22.16;40.30
61324;BME280;47203;48.428;11.974;2023-06-26T03:24:40;96862.50;;;22.14;40.23
61324;BME280;47203;48.428;11.974;2023-06-26T03:26:45;96863.19;;;22.11;40.37
61324;BME280;47203;48.428;11.974;2023-06-26T03:28:50;96865.84;;;22.11;39.88
61324;BME280;47203;48.428;11.974;2023-06-26T03:30:55;96864.28;;;22.10;40.04
61324;BME280;47203;48.428;11.974;2023-06-26T03:33:00;96865.44;;;22.09;40.53
61324;BME280;47203;48.428;11.974;2023-06-26T03:35:06;96866.88;;;22.07;40.25
61324;BME280;47203;48.428;11.974;2023-06-26T03:37:11;96866.41;;;22.05;39.90
61324;BME280;47203;48.428;11.974;2023-06-26T03:39:19;96865.53;;;22.01;40.30
61324;BME280;47203;48.428;11.974;2023-06-26T03:41:24;96859.28;;;21.96;39.97
61324;BME280;47203;48.428;11.974;2023-06-26T03:43:29;96863.06;;;21.95;40.17
61324;BME280;47203;48.428;11.974;2023-06-26T03:45:47;96859.47;;;21.91;40.28
61324;BME280;47203;48.428;11.974;2023-06-26T03:47:52;96860.28;;;21.92;39.97
61324;BME280;47203;48.428;11.974;2023-06-26T03:49:57;96863.31;;;21.90;40.12
61324;BME280;47203;48.428;11.974;2023-06-26T03:52:02;96861.72;;;21.89;40.02
61324;BME280;47203;48.428;11.974;2023-06-26T03:54:07;96861.72;;;21.89;40.11
61324;BME280;47203;48.428;11.974;2023-06-26T03:56:14;96862.84;;;21.88;40.19
61324;BME280;47203;48.428;11.974;2023-06-26T03:58:19;96862.84;;;21.88;40.13
61324;BME280;47203;48.428;11.974;2023-06-26T04:00:24;96862.84;;;21.88;40.52
61324;BME280;47203;48.428;11.974;2023-06-26T04:02:29;96867.09;;;21.89;40.34
61324;BME280;47203;48.428;11.974;2023-06-26T04:04:34;96864.41;;;21.89;40.31
61324;BME280;47203;48.428;11.974;2023-06-26T04:06:39;96860.16;;;21.88;40.18
61324;BME280;47203;48.428;11.974;2023-06-26T04:08:44;96866.75;;;21.91;40.41
61324;BME280;47203;48.428;11.974;2023-06-26T04:10:50;96857.13;;;21.90;40.37
61324;BME280;47203;48.428;11.974;2023-06-26T04:12:59;96852.59;;;21.90;40.43
61324;BME280;47203;48.428;11.974;2023-06-26T04:15:06;96865.19;;;21.90;40.55
61324;BME280;47203;48.428;11.974;2023-06-26T04:17:11;96858.25;;;21.89;40.49
61324;BME280;47203;48.428;11.974;2023-06-26T04:19:16;96858.59;;;21.87;40.63
61324;BME280;47203;48.428;11.974;2023-06-26T04:21:22;96865.06;;;21.86;40.85
61324;BME280;47203;48.428;11.974;2023-06-26T04:23:28;96864.63;;;21.84;40.58
61324;BME280;47203;48.428;11.974;2023-06-26T04:25:33;96863.06;;;21.83;40.67
61324;BME280;47203;48.428;11.974;2023-06-26T04:27:40;96871.44;;;21.82;40.52
61324;BME280;47203;48.428;11.974;2023-06-26T04:29:47;96859.16;;;21.81;40.59
61324;BME280;47203;48.428;11.974;2023-06-26T04:31:52;96859.94;;;21.81;40.83
61324;BME280;47203;48.428;11.974;2023-06-26T04:33:59;96860.72;;;21.82;40.83
61324;BME280;47203;48.428;11.974;2023-06-26T04:36:05;96858.03;;;21.82;40.88
61324;BME280;47203;48.428;11.974;2023-06-26T04:38:09;96856.91;;;21.83;40.98
61324;BME280;47203;48.428;11.974;2023-06-26T04:40:15;96864.63;;;21.84;41.08
61324;BME280;47203;48.428;11.974;2023-06-26T04:42:20;96869.63;;;21.86;40.89
61324;BME280;47203;48.428;11.974;2023-06-26T04:44:25;96868.53;;;21.87;41.31
61324;BME280;47203;48.428;11.974;2023-06-26T04:46:33;96866.63;;;21.87;41.23
61324;BME280;47203;48.428;11.974;2023-06-26T04:48:38;96861.72;;;21.89;41.11
61324;BME280;47203;48.428;11.974;2023-06-26T04:50:43;96866.41;;;21.92;41.62
61324;BME280;47203;48.428;11.974;2023-06-26T04:52:54;96861.50;;;21.94;41.68
61324;BME280;47203;48.428;11.974;2023-06-26T04:55:00;96851.66;;;21.99;41.68
61324;BME280;47203;48.428;11.974;2023-06-26T04:57:05;96857.50;;;22.01;41.64
61324;BME280;47203;48.428;11.974;2023-06-26T04:59:10;96863.72;;;22.05;41.71
61324;BME280;47203;48.428;11.974;2023-06-26T05:01:16;96864.63;;;22.09;41.62
61324;BME280;47203;48.428;11.974;2023-06-26T05:03:24;96863.19;;;22.11;41.71
61324;BME280;47203;48.428;11.974;2023-06-26T05:05:29;96864.84;;;22.16;41.79
61324;BME280;47203;48.428;11.974;2023-06-26T05:07:34;96869.19;;;22.21;41.67
61324;BME280;47203;48.428;11.974;2023-06-26T05:09:39;96865.84;;;22.24;41.63
61324;BME280;47203;48.428;11.974;2023-06-26T05:11:44;96876.34;;;22.29;41.72
61324;BME280;47203;48.428;11.974;2023-06-26T05:13:49;96864.50;;;22.30;41.61
61324;BME280;47203;48.428;11.974;2023-06-26T05:15:54;96862.75;;;22.34;41.88
61324;BME280;47203;48.428;11.974;2023-06-26T05:17:59;96864.41;;;22.39;42.15
61324;BME280;47203;48.428;11.974;2023-06-26T05:20:07;96860.25;;;22.41;42.28
61324;BME280;47203;48.428;11.974;2023-06-26T05:22:13;96868.44;;;22.45;42.23
61324;BME280;47203;48.428;11.974;2023-06-26T05:24:19;96862.72;;;22.46;42.15
61324;BME280;47203;48.428;11.974;2023-06-26T05:26:26;96865.84;;;22.48;41.80
61324;BME280;47203;48.428;11.974;2023-06-26T05:28:32;96860.59;;;22.52;41.88
61324;BME280;47203;48.428;11.974;2023-06-26T05:30:38;96865.63;;;22.54;41.77
61324;BME280;47203;48.428;11.974;2023-06-26T05:32:46;96857.56;;;22.54;41.61
61324;BME280;47203;48.428;11.974;2023-06-26T05:34:53;96861.03;;;22.54;41.43
61324;BME280;47203;48.428;11.974;2023-06-26T05:37:04;96861.47;;;22.56;41.92
61324;BME280;47203;48.428;11.974;2023-06-26T05:39:10;96866.16;;;22.59;41.72
61324;BME280;47203;48.428;11.974;2023-06-26T05:41:16;96869.75;;;22.63;41.98
61324;BME280;47203;48.428;11.974;2023-06-26T05:43:21;96869.41;;;22.65;41.91
61324;BME280;47203;48.428;11.974;2023-06-26T05:45:30;96865.22;;;22.67;42.00
61324;BME280;47203;48.428;11.974;2023-06-26T05:47:35;96865.69;;;22.70;42.00
61324;BME280;47203;48.428;11.974;2023-06-26T05:49:40;96864.59;;;22.71;42.13
61324;BME280;47203;48.428;11.974;2023-06-26T05:51:45;96867.69;;;22.73;42.12
61324;BME280;47203;48.428;11.974;2023-06-26T05:53:53;96865.44;;;22.75;42.01
61324;BME280;47203;48.428;11.974;2023-06-26T05:55:59;96855.16;;;22.77;41.91
61324;BME280;47203;48.428;11.974;2023-06-26T05:58:05;96868.25;;;22.78;41.66
61324;BME280;47203;48.428;11.974;2023-06-26T06:00:12;96865.97;;;22.80;41.88
61324;BME280;47203;48.428;11.974;2023-06-26T06:02:18;96859.94;;;22.83;41.79
61324;BME280;47203;48.428;11.974;2023-06-26T06:04:23;96867.00;;;22.88;41.82
61324;BME280;47203;48.428;11.974;2023-06-26T06:06:28;96867.84;;;22.92;42.37
61324;BME280;47203;48.428;11.974;2023-06-26T06:08:33;96860.34;;;22.98;42.59
61324;BME280;47203;48.428;11.974;2023-06-26T06:10:41;96861.13;;;22.98;41.97
61324;BME280;47203;48.428;11.974;2023-06-26T06:12:46;96862.69;;;22.99;41.85
61324;BME280;47203;48.428;11.974;2023-06-26T06:14:51;96866.59;;;23.02;41.92
61324;BME280;47203;48.428;11.974;2023-06-26T06:16:58;96867.81;;;23.05;42.24
61324;BME280;47203;48.428;11.974;2023-06-26T06:19:04;96858.66;;;23.06;42.15
61324;BME280;47203;48.428;11.974;2023-06-26T06:21:09;96858.72;;;23.09;42.13
61324;BME280;47203;48.428;11.974;2023-06-26T06:23:15;96854.63;;;23.12;41.97
61324;BME280;47203;48.428;11.974;2023-06-26T06:25:19;96854.28;;;23.13;41.89
61324;BME280;47203;48.428;11.974;2023-06-26T06:27:27;96854.34;;;23.17;42.31
61324;BME280;47203;48.428;11.974;2023-06-26T06:29:32;96851.44;;;23.22;41.97
61324;BME280;47203;48.428;11.974;2023-06-26T06:31:37;96852.31;;;23.26;41.91
61324;BME280;47203;48.428;11.974;2023-06-26T06:33:42;96845.56;;;23.32;42.53
61324;BME280;47203;48.428;11.974;2023-06-26T06:35:47;96849.13;;;23.37;41.96
61324;BME280;47203;48.428;11.974;2023-06-26T06:37:52;96847.63;;;23.39;42.32
61324;BME280;47203;48.428;11.974;2023-06-26T06:39:57;96846.97;;;23.42;42.10
61324;BME280;47203;48.428;11.974;2023-06-26T06:42:03;96847.81;;;23.46;42.11
61324;BME280;47203;48.428;11.974;2023-06-26T06:44:10;96853.28;;;23.50;41.92
61324;BME280;47203;48.428;11.974;2023-06-26T06:46:15;96854.94;;;23.55;41.94
61324;BME280;47203;48.428;11.974;2023-06-26T06:48:20;96855.81;;;23.59;42.25
61324;BME280;47203;48.428;11.974;2023-06-26T06:50:25;96846.72;;;23.63;42.01
61324;BME280;47203;48.428;11.974;2023-06-26T06:52:30;96846.78;;;23.67;42.43
61324;BME280;47203;48.428;11.974;2023-06-26T06:54:51;96847.31;;;23.73;42.18
61324;BME280;47203;48.428;11.974;2023-06-26T06:56:56;96856.25;;;23.77;42.13
61324;BME280;47203;48.428;11.974;2023-06-26T06:59:01;96849.06;;;23.81;42.14
61324;BME280;47203;48.428;11.974;2023-06-26T07:01:09;96856.06;;;23.85;42.01
61324;BME280;47203;48.428;11.974;2023-06-26T07:03:14;96856.97;;;23.90;42.03
61324;BME280;47203;48.428;11.974;2023-06-26T07:05:19;96858.19;;;23.92;41.70
61324;BME280;47203;48.428;11.974;2023-06-26T07:07:28;96851.00;;;23.96;41.26
61324;BME280;47203;48.428;11.974;2023-06-26T07:09:34;96843.00;;;24.00;41.36
61324;BME280;47203;48.428;11.974;2023-06-26T07:11:39;96858.88;;;24.05;41.64
61324;BME280;47203;48.428;11.974;2023-06-26T07:13:44;96853.56;;;24.09;41.99
61324;BME280;47203;48.428;11.974;2023-06-26T07:15:49;96850.63;;;24.14;41.71
61324;BME280;47203;48.428;11.974;2023-06-26T07:17:57;96840.69;;;24.18;41.24
61324;BME280;47203;48.428;11.974;2023-06-26T07:20:03;96843.13;;;24.23;41.38
61324;BME280;47203;48.428;11.974;2023-06-26T07:22:09;96850.16;;;24.28;41.29
61324;BME280;47203;48.428;11.974;2023-06-26T07:24:14;96849.44;;;24.31;40.95
61324;BME280;47203;48.428;11.974;2023-06-26T07:26:19;96844.94;;;24.35;40.88
61324;BME280;47203;48.428;11.974;2023-06-26T07:28:41;96849.59;;;24.38;40.80
61324;BME280;47203;48.428;11.974;2023-06-26T07:30:46;96847.78;;;24.42;40.69
61324;BME280;47203;48.428;11.974;2023-06-26T07:32:51;96849.41;;;24.47;40.71
61324;BME280;47203;48.428;11.974;2023-06-26T07:34:58;96848.34;;;24.51;41.08
61324;BME280;47203;48.428;11.974;2023-06-26T07:37:03;96848.06;;;24.56;40.91
61324;BME280;47203;48.428;11.974;2023-06-26T07:39:09;96851.31;;;24.62;40.86
61324;BME280;47203;48.428;11.974;2023-06-26T07:41:20;96851.38;;;24.66;41.23
61324;BME280;47203;48.428;11.974;2023-06-26T07:43:25;96856.47;;;24.71;41.22
61324;BME280;47203;48.428;11.974;2023-06-26T07:45:30;96847.34;;;24.76;41.27
61324;BME280;47203;48.428;11.974;2023-06-26T07:47:35;96847.84;;;24.81;41.28
61324;BME280;47203;48.428;11.974;2023-06-26T07:49:40;96848.69;;;24.85;41.22
61324;BME280;47203;48.428;11.974;2023-06-26T07:51:47;96844.13;;;24.89;41.48
61324;BME280;47203;48.428;11.974;2023-06-26T07:53:52;96851.94;;;24.95;41.34
61324;BME280;47203;48.428;11.974;2023-06-26T07:55:57;96845.50;;;24.99;41.21
61324;BME280;47203;48.428;11.974;2023-06-26T07:58:02;96843.66;;;25.03;41.14
61324;BME280;47203;48.428;11.974;2023-06-26T08:00:08;96845.28;;;25.08;40.88
61324;BME280;47203;48.428;11.974;2023-06-26T08:02:17;96841.84;;;25.11;41.14
61324;BME280;47203;48.428;11.974;2023-06-26T08:04:23;96848.88;;;25.16;41.05
61324;BME280;47203;48.428;11.974;2023-06-26T08:06:28;96838.19;;;25.19;40.76
61324;BME280;47203;48.428;11.974;2023-06-26T08:08:36;96839.03;;;25.23;40.58
61324;BME280;47203;48.428;11.974;2023-06-26T08:10:42;96839.06;;;25.27;40.34
61324;BME280;47203;48.428;11.974;2023-06-26T08:12:47;96842.66;;;25.31;40.62
61324;BME280;47203;48.428;11.974;2023-06-26T08:14:53;96832.34;;;25.37;40.79
61324;BME280;47203;48.428;11.974;2023-06-26T08:16:58;96832.41;;;25.40;40.42
61324;BME280;47203;48.428;11.974;2023-06-26T08:19:04;96837.50;;;25.46;40.32
61324;BME280;47203;48.428;11.974;2023-06-26T08:21:09;96834.50;;;25.51;40.29
61324;BME280;47203;48.428;11.974;2023-06-26T08:23:14;96834.56;;;25.54;40.32
61324;BME280;47203;48.428;11.974;2023-06-26T08:25:21;96831.56;;;25.59;40.06
61324;BME280;47203;48.428;11.974;2023-06-26T08:27:26;96835.09;;;25.64;40.31
61324;BME280;47203;48.428;11.974;2023-06-26T08:29:31;96835.59;;;25.69;40.16
61324;BME280;47203;48.428;11.974;2023-06-26T08:31:37;96831.03;;;25.73;40.16
61324;BME280;47203;48.428;11.974;2023-06-26T08:33:42;96840.38;;;25.79;40.30
61324;BME280;47203;48.428;11.974;2023-06-26T08:35:47;96826.59;;;25.85;40.29
61324;BME280;47203;48.428;11.974;2023-06-26T08:37:52;96826.28;;;25.90;40.53
61324;BME280;47203;48.428;11.974;2023-06-26T08:39:57;96832.91;;;25.96;40.30
61324;BME280;47203;48.428;11.974;2023-06-26T08:42:05;96832.66;;;26.01;39.75
61324;BME280;47203;48.428;11.974;2023-06-26T08:44:10;96835.44;;;26.08;39.74
61324;BME280;47203;48.428;11.974;2023-06-26T08:46:15;96832.44;;;26.13;39.64
61324;BME280;47203;48.428;11.974;2023-06-26T08:48:21;96825.59;;;26.20;39.40
61324;BME280;47203;48.428;11.974;2023-06-26T08:50:29;96826.41;;;26.24;39.45
61324;BME280;47203;48.428;11.974;2023-06-26T08:52:36;96825.69;;;26.27;40.16
61324;BME280;47203;48.428;11.974;2023-06-26T08:54:46;96818.78;;;26.29;40.12
61324;BME280;47203;48.428;11.974;2023-06-26T08:56:55;96826.50;;;26.31;39.70
61324;BME280;47203;48.428;11.974;2023-06-26T08:59:06;96822.66;;;26.32;39.58
61324;BME280;47203;48.428;11.974;2023-06-26T09:01:12;96813.44;;;26.33;39.69
61324;BME280;47203;48.428;11.974;2023-06-26T09:03:17;96806.13;;;26.34;40.35
61324;BME280;47203;48.428;11.974;2023-06-26T09:05:22;96813.06;;;26.35;40.86
61324;BME280;47203;48.428;11.974;2023-06-26T09:07:29;96809.25;;;26.36;40.30
61324;BME280;47203;48.428;11.974;2023-06-26T09:09:35;96808.88;;;26.37;40.50
61324;BME280;47203;48.428;11.974;2023-06-26T09:11:40;96808.88;;;26.37;39.78
61324;BME280;47203;48.428;11.974;2023-06-26T09:13:45;96803.88;;;26.39;40.92
61324;BME280;47203;48.428;11.974;2023-06-26T09:15:54;96808.91;;;26.41;41.88
61324;BME280;47203;48.428;11.974;2023-06-26T09:17:59;96808.91;;;26.41;41.32
61324;BME280;47203;48.428;11.974;2023-06-26T09:20:05;96805.84;;;26.42;41.02
61324;BME280;47203;48.428;11.974;2023-06-26T09:22:11;96809.31;;;26.43;40.35
61324;BME280;47203;48.428;11.974;2023-06-26T09:24:19;96803.53;;;26.44;40.47
61324;BME280;47203;48.428;11.974;2023-06-26T09:26:24;96798.56;;;26.46;40.07
61324;BME280;47203;48.428;11.974;2023-06-26T09:28:30;96802.47;;;26.49;40.42
61324;BME280;47203;48.428;11.974;2023-06-26T09:30:35;96803.63;;;26.52;41.27
61324;BME280;47203;48.428;11.974;2023-06-26T09:32:43;96799.44;;;26.54;39.98
61324;BME280;47203;48.428;11.974;2023-06-26T09:34:52;96793.28;;;26.57;40.55
61324;BME280;47203;48.428;11.974;2023-06-26T09:37:00;96791.41;;;26.61;40.51
61324;BME280;47203;48.428;11.974;2023-06-26T09:39:07;96788.78;;;26.65;40.99
61324;BME280;47203;48.428;11.974;2023-06-26T09:41:15;96796.56;;;26.70;40.49
61324;BME280;47203;48.428;11.974;2023-06-26T09:43:21;96797.38;;;26.74;40.44
61324;BME280;47203;48.428;11.974;2023-06-26T09:45:26;96798.59;;;26.80;41.38
61324;BME280;47203;48.428;11.974;2023-06-26T09:47:32;96796.34;;;26.86;41.07
61324;BME280;47203;48.428;11.974;2023-06-26T09:49:43;96790.28;;;26.93;43.42
61324;BME280;47203;48.428;11.974;2023-06-26T09:51:49;96785.72;;;27.00;43.83
61324;BME280;47203;48.428;11.974;2023-06-26T09:53:54;96780.75;;;27.06;43.30
61324;BME280;47203;48.428;11.974;2023-06-26T09:56:05;96781.59;;;27.14;41.84
61324;BME280;47203;48.428;11.974;2023-06-26T09:58:11;96774.69;;;27.20;41.38
61324;BME280;47203;48.428;11.974;2023-06-26T10:00:18;96779.41;;;27.27;41.42
61324;BME280;47203;48.428;11.974;2023-06-26T10:02:23;96775.66;;;27.35;41.29
61324;BME280;47203;48.428;11.974;2023-06-26T10:04:28;96774.53;;;27.43;40.05
61324;BME280;47203;48.428;11.974;2023-06-26T10:06:38;96780.00;;;27.50;40.97
61324;BME280;47203;48.428;11.974;2023-06-26T10:08:46;96772.72;;;27.58;41.45
61324;BME280;47203;48.428;11.974;2023-06-26T10:10:52;96780.50;;;27.67;40.77
61324;BME280;47203;48.428;11.974;2023-06-26T10:13:02;96770.94;;;27.77;40.72
61324;BME280;47203;48.428;11.974;2023-06-26T10:15:08;96772.53;;;27.85;41.14
61324;BME280;47203;48.428;11.974;2023-06-26T10:17:19;96766.81;;;27.94;41.23
61324;BME280;47203;48.428;11.974;2023-06-26T10:19:26;96768.41;;;28.02;41.33
61324;BME280;47203;48.428;11.974;2023-06-26T10:21:36;96763.84;;;28.10;41.71
61324;BME280;47203;48.428;11.974;2023-06-26T10:23:44;96766.56;;;28.17;41.46
61324;BME280;47203;48.428;11.974;2023-06-26T10:25:51;96764.66;;;28.25;41.93
61324;BME280;47203;48.428;11.974;2023-06-26T10:27:58;96765.47;;;28.32;40.71
61324;BME280;47203;48.428;11.974;2023-06-26T10:30:09;96763.56;;;28.40;40.37
61324;BME280;47203;48.428;11.974;2023-06-26T10:32:15;96762.44;;;28.48;40.63
61324;BME280;47203;48.428;11.974;2023-06-26T10:34:21;96760.91;;;28.54;40.28
61324;BME280;47203;48.428;11.974;2023-06-26T10:36:30;96755.91;;;28.60;39.72
61324;BME280;47203;48.428;11.974;2023-06-26T10:38:51;96764.09;;;28.67;39.28
61324;BME280;47203;48.428;11.974;2023-06-26T10:41:10;96756.38;;;28.73;39.72
61324;BME280;47203;48.428;11.974;2023-06-26T10:43:15;96766.84;;;28.82;39.56
61324;BME280;47203;48.428;11.974;2023-06-26T10:45:21;96758.34;;;28.87;39.47
61324;BME280;47203;48.428;11.974;2023-06-26T10:47:29;96758.34;;;28.94;37.89
61324;BME280;47203;48.428;11.974;2023-06-26T10:49:38;96758.34;;;29.01;37.98
61324;BME280;47203;48.428;11.974;2023-06-26T10:51:49;96759.16;;;29.09;38.02
61324;BME280;47203;48.428;11.974;2023-06-26T10:53:57;96750.25;;;29.16;37.83
61324;BME280;47203;48.428;11.974;2023-06-26T10:56:03;96742.50;;;29.21;37.97
61324;BME280;47203;48.428;11.974;2023-06-26T10:58:27;96744.50;;;29.28;37.34
61324;BME280;47203;48.428;11.974;2023-06-26T11:00:33;96740.63;;;29.33;37.73
61324;BME280;47203;48.428;11.974;2023-06-26T11:02:48;96738.28;;;29.38;37.33